sensor_id;sensor_type;location;lat;lon;timestamp;pressure;altitude;pressure_sealevel;temperature;humidity
7109;BME280;29079;41.930;25.558;2023-03-25T00:01:12;99414.28;;;8.52;86.56
7109;BME280;29079;41.930;25.558;2023-03-25T00:03:47;99414.28;;;8.41;85.71
7109;BME280;29079;41.930;25.558;2023-03-25T00:06:21;99410.00;;;8.17;86.53
7109;BME280;29079;41.930;25.558;2023-03-25T00:08:54;99412.25;;;8.33;86.06
7109;BME280;29079;41.930;25.558;2023-03-25T00:11:28;99411.88;;;8.37;85.92
7109;BME280;29079;41.930;25.558;2023-03-25T00:14:01;99402.31;;;8.46;86.79
7109;BME280;29079;41.930;25.558;2023-03-25T00:16:35;99403.50;;;8.53;86.31
7109;BME280;29079;41.930;25.558;2023-03-25T00:19:10;99404.16;;;8.34;86.92
7109;BME280;29079;41.930;25.558;2023-03-25T00:21:44;99398.25;;;8.31;87.00
7109;BME280;29079;41.930;25.558;2023-03-25T00:24:17;99392.41;;;8.37;86.46
7109;BME280;29079;41.930;25.558;2023-03-25T00:26:50;99398.25;;;8.31;86.92
7109;BME280;29079;41.930;25.558;2023-03-25T00:29:24;99390.59;;;8.37;86.36
7109;BME280;29079;41.930;25.558;2023-03-25T00:31:57;99391.34;;;8.40;86.48
7109;BME280;29079;41.930;25.558;2023-03-25T00:34:32;99386.31;;;8.25;86.71
7109;BME280;29079;41.930;25.558;2023-03-25T00:37:12;99383.53;;;8.15;87.32
7109;BME280;29079;41.930;25.558;2023-03-25T00:39:48;99381.59;;;8.17;87.01
7109;BME280;29079;41.930;25.558;2023-03-25T00:42:21;99385.25;;;8.05;87.64
7109;BME280;29079;41.930;25.558;2023-03-25T00:44:58;99378.03;;;7.73;89.22
7109;BME280;29079;41.930;25.558;2023-03-25T00:47:32;99374.44;;;7.74;88.78
7109;BME280;29079;41.930;25.558;2023-03-25T00:50:07;99380.56;;;7.97;88.13
7109;BME280;29079;41.930;25.558;2023-03-25T00:52:40;99374.44;;;7.74;88.41
7109;BME280;29079;41.930;25.558;2023-03-25T00:55:13;99380.19;;;7.91;88.56
7109;BME280;29079;41.930;25.558;2023-03-25T00:57:46;99374.63;;;7.82;88.91
7109;BME280;29079;41.930;25.558;2023-03-25T01:00:19;99369.00;;;7.76;88.98
7109;BME280;29079;41.930;25.558;2023-03-25T01:02:52;99364.75;;;7.84;88.85
7109;BME280;29079;41.930;25.558;2023-03-25T01:05:27;99361.97;;;7.86;88.50
7109;BME280;29079;41.930;25.558;2023-03-25T01:08:00;99361.22;;;7.95;89.06
7109;BME280;29079;41.930;25.558;2023-03-25T01:10:34;99351.00;;;7.68;89.71
7109;BME280;29079;41.930;25.558;2023-03-25T01:13:07;99352.69;;;7.80;89.28
7109;BME280;29079;41.930;25.558;2023-03-25T01:15:41;99351.09;;;7.89;88.89
7109;BME280;29079;41.930;25.558;2023-03-25T01:18:14;99359.69;;;7.81;88.02
7109;BME280;29079;41.930;25.558;2023-03-25T01:20:49;99353.31;;;7.61;87.84
7109;BME280;29079;41.930;25.558;2023-03-25T01:23:21;99349.44;;;7.43;87.85
7109;BME280;29079;41.930;25.558;2023-03-25T01:25:54;99351.47;;;7.17;88.95
7109;BME280;29079;41.930;25.558;2023-03-25T01:28:27;99353.75;;;7.10;89.69
7109;BME280;29079;41.930;25.558;2023-03-25T01:31:01;99352.19;;;7.19;89.43
7109;BME280;29079;41.930;25.558;2023-03-25T01:33:34;99355.19;;;7.03;89.30
7109;BME280;29079;41.930;25.558;2023-03-25T01:36:09;99350.84;;;7.13;90.25
7109;BME280;29079;41.930;25.558;2023-03-25T01:38:43;99347.84;;;7.06;89.99
7109;BME280;29079;41.930;25.558;2023-03-25T01:41:18;99344.25;;;7.07;89.85
7109;BME280;29079;41.930;25.558;2023-03-25T01:44:01;99343.97;;;6.99;90.57
7109;BME280;29079;41.930;25.558;2023-03-25T01:46:34;99336.50;;;6.93;90.19
7109;BME280;29079;41.930;25.558;2023-03-25T01:49:10;99334.94;;;7.02;90.41
7109;BME280;29079;41.930;25.558;2023-03-25T01:51:46;99331.44;;;6.90;90.05
7109;BME280;29079;41.930;25.558;2023-03-25T01:54:22;99328.78;;;6.90;90.31
7109;BME280;29079;41.930;25.558;2023-03-25T01:56:58;99323.44;;;6.78;91.87
7109;BME280;29079;41.930;25.558;2023-03-25T01:59:31;99317.81;;;6.94;90.57
7109;BME280;29079;41.930;25.558;2023-03-25T02:02:04;99319.13;;;7.00;91.55
7109;BME280;29079;41.930;25.558;2023-03-25T02:04:41;99317.47;;;7.10;90.52
7109;BME280;29079;41.930;25.558;2023-03-25T02:07:17;99318.91;;;7.03;90.17
7109;BME280;29079;41.930;25.558;2023-03-25T02:09:50;99317.22;;;7.13;89.63
7109;BME280;29079;41.930;25.558;2023-03-25T02:12:24;99326.00;;;7.03;90.06
7109;BME280;29079;41.930;25.558;2023-03-25T02:14:58;99305.25;;;6.96;90.07
7109;BME280;29079;41.930;25.558;2023-03-25T02:17:36;99305.88;;;7.00;89.74
7109;BME280;29079;41.930;25.558;2023-03-25T02:20:23;99305.88;;;7.00;89.87
7109;BME280;29079;41.930;25.558;2023-03-25T02:23:14;99307.53;;;7.01;89.95
7109;BME280;29079;41.930;25.558;2023-03-25T02:26:08;99302.72;;;6.95;90.17
7109;BME280;29079;41.930;25.558;2023-03-25T02:28:44;99313.19;;;6.85;90.76
7109;BME280;29079;41.930;25.558;2023-03-25T02:37:07;99300.44;;;6.90;89.79
7109;BME280;29079;41.930;25.558;2023-03-25T02:39:46;99302.91;;;6.69;90.23
7109;BME280;29079;41.930;25.558;2023-03-25T02:42:24;99304.63;;;6.82;89.23
7109;BME280;29079;41.930;25.558;2023-03-25T02:44:58;99298.81;;;6.76;90.05
7109;BME280;29079;41.930;25.558;2023-03-25T02:47:35;99294.22;;;6.67;89.77
7109;BME280;29079;41.930;25.558;2023-03-25T02:50:08;99289.16;;;6.64;89.79
7109;BME280;29079;41.930;25.558;2023-03-25T02:52:46;99290.88;;;6.65;89.47
7109;BME280;29079;41.930;25.558;2023-03-25T02:55:22;99289.66;;;6.58;89.64
7109;BME280;29079;41.930;25.558;2023-03-25T02:57:57;99287.09;;;6.56;89.62
7109;BME280;29079;41.930;25.558;2023-03-25T03:00:32;99291.44;;;6.57;89.60
7109;BME280;29079;41.930;25.558;2023-03-25T03:03:09;99290.69;;;6.44;90.62
7109;BME280;29079;41.930;25.558;2023-03-25T03:05:43;99281.91;;;6.43;90.19
7109;BME280;29079;41.930;25.558;2023-03-25T03:08:21;99278.66;;;6.51;89.45
7109;BME280;29079;41.930;25.558;2023-03-25T03:11:01;99277.03;;;6.37;89.16
7109;BME280;29079;41.930;25.558;2023-03-25T03:13:41;99275.69;;;6.32;89.42
7109;BME280;29079;41.930;25.558;2023-03-25T03:16:20;99287.75;;;6.36;90.19
7109;BME280;29079;41.930;25.558;2023-03-25T03:18:56;99290.47;;;6.23;89.56
7109;BME280;29079;41.930;25.558;2023-03-25T03:21:35;99286.63;;;6.27;89.45
7109;BME280;29079;41.930;25.558;2023-03-25T03:24:12;99293.88;;;6.25;89.78
7109;BME280;29079;41.930;25.558;2023-03-25T03:26:50;99298.53;;;6.21;90.36
7109;BME280;29079;41.930;25.558;2023-03-25T03:29:26;99301.31;;;6.20;90.26
7109;BME280;29079;41.930;25.558;2023-03-25T03:32:02;99292.16;;;6.24;90.29
7109;BME280;29079;41.930;25.558;2023-03-25T03:34:40;99283.34;;;6.12;90.81
7109;BME280;29079;41.930;25.558;2023-03-25T03:37:15;99289.47;;;6.13;90.64
7109;BME280;29079;41.930;25.558;2023-03-25T03:39:50;99288.47;;;6.02;90.69
7109;BME280;29079;41.930;25.558;2023-03-25T03:42:26;99289.53;;;6.00;90.24
7109;BME280;29079;41.930;25.558;2023-03-25T03:45:02;99293.81;;;6.14;90.79
7109;BME280;29079;41.930;25.558;2023-03-25T03:47:37;99293.22;;;6.10;89.90
7109;BME280;29079;41.930;25.558;2023-03-25T03:50:13;99288.34;;;6.04;90.65
7109;BME280;29079;41.930;25.558;2023-03-25T03:52:49;99296.19;;;6.05;90.46
7109;BME280;29079;41.930;25.558;2023-03-25T03:55:24;99281.88;;;6.08;89.56
7109;BME280;29079;41.930;25.558;2023-03-25T03:58:01;99277.50;;;6.07;89.75
7109;BME280;29079;41.930;25.558;2023-03-25T04:00:39;99281.25;;;6.04;89.60
7109;BME280;29079;41.930;25.558;2023-03-25T04:03:16;99267.38;;;6.01;89.70
7109;BME280;29079;41.930;25.558;2023-03-25T04:05:56;99264.63;;;6.02;90.00
7109;BME280;29079;41.930;25.558;2023-03-25T04:08:33;99269.47;;;6.08;89.04
7109;BME280;29079;41.930;25.558;2023-03-25T04:11:09;99274.84;;;5.83;90.25
7109;BME280;29079;41.930;25.558;2023-03-25T04:13:47;99279.59;;;5.90;89.87
7109;BME280;29079;41.930;25.558;2023-03-25T04:16:23;99283.91;;;6.04;89.88
7109;BME280;29079;41.930;25.558;2023-03-25T04:18:56;99278.28;;;5.96;89.51
7109;BME280;29079;41.930;25.558;2023-03-25T04:21:30;99282.56;;;5.86;88.86
7109;BME280;29079;41.930;25.558;2023-03-25T04:24:03;99281.25;;;5.67;89.61
7109;BME280;29079;41.930;25.558;2023-03-25T04:26:39;99282.50;;;5.74;89.75
7109;BME280;29079;41.930;25.558;2023-03-25T04:29:14;99279.06;;;5.61;89.90
7109;BME280;29079;41.930;25.558;2023-03-25T04:31:47;99283.59;;;5.59;90.00
7109;BME280;29079;41.930;25.558;2023-03-25T04:34:21;99282.97;;;5.68;89.48
7109;BME280;29079;41.930;25.558;2023-03-25T04:36:54;99279.41;;;5.81;89.25
7109;BME280;29079;41.930;25.558;2023-03-25T04:39:29;99280.09;;;5.71;89.71
7109;BME280;29079;41.930;25.558;2023-03-25T04:42:03;99276.66;;;5.58;89.82
7109;BME280;29079;41.930;25.558;2023-03-25T04:44:38;99280.88;;;5.61;90.10
7109;BME280;29079;41.930;25.558;2023-03-25T04:47:11;99277.09;;;5.76;90.00
7109;BME280;29079;41.930;25.558;2023-03-25T04:49:46;99287.00;;;5.61;90.20
7109;BME280;29079;41.930;25.558;2023-03-25T04:52:19;99281.44;;;5.40;91.10
7109;BME280;29079;41.930;25.558;2023-03-25T04:54:53;99280.50;;;5.78;90.18
7109;BME280;29079;41.930;25.558;2023-03-25T04:57:26;99281.56;;;5.75;89.86
7109;BME280;29079;41.930;25.558;2023-03-25T05:00:01;99278.16;;;5.73;89.79
7109;BME280;29079;41.930;25.558;2023-03-25T05:02:35;99282.31;;;6.02;89.35
7109;BME280;29079;41.930;25.558;2023-03-25T05:05:09;99278.03;;;6.12;89.13
7109;BME280;29079;41.930;25.558;2023-03-25T05:07:49;99277.81;;;6.15;89.17
7109;BME280;29079;41.930;25.558;2023-03-25T05:10:24;99272.91;;;6.22;89.00
7109;BME280;29079;41.930;25.558;2023-03-25T05:13:04;99267.72;;;6.32;88.36
7109;BME280;29079;41.930;25.558;2023-03-25T05:15:39;99272.50;;;6.51;88.17
7109;BME280;29079;41.930;25.558;2023-03-25T05:18:12;99275.38;;;6.48;87.76
7109;BME280;29079;41.930;25.558;2023-03-25T05:20:46;99277.50;;;6.67;87.25
7109;BME280;29079;41.930;25.558;2023-03-25T05:23:21;99281.56;;;6.71;87.23
7109;BME280;29079;41.930;25.558;2023-03-25T05:25:56;99280.25;;;6.76;85.57
7109;BME280;29079;41.930;25.558;2023-03-25T05:28:29;99281.59;;;6.82;86.78
7109;BME280;29079;41.930;25.558;2023-03-25T05:31:03;99281.75;;;7.14;85.41
7109;BME280;29079;41.930;25.558;2023-03-25T05:33:39;99278.47;;;7.00;85.85
7109;BME280;29079;41.930;25.558;2023-03-25T05:36:14;99272.22;;;7.12;84.72
7109;BME280;29079;41.930;25.558;2023-03-25T05:38:47;99269.22;;;7.17;85.14
7109;BME280;29079;41.930;25.558;2023-03-25T05:41:20;99277.41;;;7.13;85.72
7109;BME280;29079;41.930;25.558;2023-03-25T05:44:03;99272.81;;;7.15;86.62
7109;BME280;29079;41.930;25.558;2023-03-25T05:46:37;99274.25;;;7.42;85.00
7109;BME280;29079;41.930;25.558;2023-03-25T05:49:11;99264.81;;;7.61;85.32
7109;BME280;29079;41.930;25.558;2023-03-25T05:51:44;99266.72;;;7.70;84.41
7109;BME280;29079;41.930;25.558;2023-03-25T05:54:20;99271.28;;;7.79;84.08
7109;BME280;29079;41.930;25.558;2023-03-25T05:56:55;99272.81;;;7.93;84.11
7109;BME280;29079;41.930;25.558;2023-03-25T05:59:28;99273.25;;;8.10;82.71
7109;BME280;29079;41.930;25.558;2023-03-25T06:02:03;99262.88;;;8.07;83.95
7109;BME280;29079;41.930;25.558;2023-03-25T06:04:36;99258.03;;;8.33;83.81
7109;BME280;29079;41.930;25.558;2023-03-25T06:07:12;99249.28;;;8.42;82.90
7109;BME280;29079;41.930;25.558;2023-03-25T06:09:51;99259.72;;;8.45;83.95
7109;BME280;29079;41.930;25.558;2023-03-25T06:12:27;99264.56;;;8.61;83.25
7109;BME280;29079;41.930;25.558;2023-03-25T06:15:03;99268.28;;;8.70;84.48
7109;BME280;29079;41.930;25.558;2023-03-25T06:17:38;99272.59;;;8.71;86.32
7109;BME280;29079;41.930;25.558;2023-03-25T06:20:12;99263.13;;;8.78;86.92
7109;BME280;29079;41.930;25.558;2023-03-25T06:22:50;99266.16;;;8.95;83.67
7109;BME280;29079;41.930;25.558;2023-03-25T06:25:23;99262.41;;;8.76;83.69
7109;BME280;29079;41.930;25.558;2023-03-25T06:27:57;99260.25;;;8.91;86.51
7109;BME280;29079;41.930;25.558;2023-03-25T06:30:34;99272.88;;;8.99;84.11
7109;BME280;29079;41.930;25.558;2023-03-25T06:33:09;99263.03;;;9.11;87.02
7109;BME280;29079;41.930;25.558;2023-03-25T06:35:42;99265.00;;;9.18;87.87
7109;BME280;29079;41.930;25.558;2023-03-25T06:38:15;99264.03;;;9.19;86.63
7109;BME280;29079;41.930;25.558;2023-03-25T06:40:49;99259.31;;;9.33;86.03
7109;BME280;29079;41.930;25.558;2023-03-25T06:43:22;99260.31;;;9.41;83.52
7109;BME280;29079;41.930;25.558;2023-03-25T06:45:55;99265.94;;;9.48;83.46
7109;BME280;29079;41.930;25.558;2023-03-25T06:48:30;99262.75;;;9.64;82.47
7109;BME280;29079;41.930;25.558;2023-03-25T06:51:03;99265.44;;;9.74;82.32
7109;BME280;29079;41.930;25.558;2023-03-25T06:53:36;99275.00;;;9.86;83.45
7109;BME280;29079;41.930;25.558;2023-03-25T06:56:10;99270.81;;;9.93;84.57
7109;BME280;29079;41.930;25.558;2023-03-25T06:58:43;99279.81;;;10.02;86.11
7109;BME280;29079;41.930;25.558;2023-03-25T07:01:16;99276.44;;;10.20;82.83
7109;BME280;29079;41.930;25.558;2023-03-25T07:03:51;99279.22;;;10.28;83.24
7109;BME280;29079;41.930;25.558;2023-03-25T07:06:24;99280.13;;;10.38;80.68
7109;BME280;29079;41.930;25.558;2023-03-25T07:08:57;99279.41;;;10.46;80.65
7109;BME280;29079;41.930;25.558;2023-03-25T07:11:30;99288.78;;;10.60;79.96
7109;BME280;29079;41.930;25.558;2023-03-25T07:14:06;99281.91;;;10.67;79.97
7109;BME280;29079;41.930;25.558;2023-03-25T07:16:39;99281.75;;;10.78;79.55
7109;BME280;29079;41.930;25.558;2023-03-25T07:19:14;99278.34;;;10.86;80.28
7109;BME280;29079;41.930;25.558;2023-03-25T07:21:47;99268.22;;;11.00;78.17
7109;BME280;29079;41.930;25.558;2023-03-25T07:24:21;99270.59;;;11.03;77.60
7109;BME280;29079;41.930;25.558;2023-03-25T07:26:54;99271.94;;;11.17;77.24
7109;BME280;29079;41.930;25.558;2023-03-25T07:29:27;99272.88;;;11.25;75.30
7109;BME280;29079;41.930;25.558;2023-03-25T07:32:00;99267.13;;;11.30;74.99
7109;BME280;29079;41.930;25.558;2023-03-25T07:34:35;99269.34;;;11.35;75.08
7109;BME280;29079;41.930;25.558;2023-03-25T07:37:08;99263.66;;;11.47;73.81
7109;BME280;29079;41.930;25.558;2023-03-25T07:39:42;99259.41;;;11.55;73.07
7109;BME280;29079;41.930;25.558;2023-03-25T07:42:15;99266.50;;;11.64;73.66
7109;BME280;29079;41.930;25.558;2023-03-25T07:44:48;99270.13;;;11.73;72.99
7109;BME280;29079;41.930;25.558;2023-03-25T07:47:21;99259.28;;;11.74;72.04
7109;BME280;29079;41.930;25.558;2023-03-25T07:49:56;99268.84;;;11.77;72.06
7109;BME280;29079;41.930;25.558;2023-03-25T07:52:29;99272.03;;;11.80;73.49
7109;BME280;29079;41.930;25.558;2023-03-25T07:55:02;99268.63;;;11.88;73.07
7109;BME280;29079;41.930;25.558;2023-03-25T07:57:35;99275.00;;;12.05;72.16
7109;BME280;29079;41.930;25.558;2023-03-25T08:00:09;99260.94;;;12.03;72.29
7109;BME280;29079;41.930;25.558;2023-03-25T08:02:42;99263.25;;;12.16;73.36
7109;BME280;29079;41.930;25.558;2023-03-25T08:05:17;99255.34;;;12.32;72.47
7109;BME280;29079;41.930;25.558;2023-03-25T08:07:53;99260.16;;;12.47;72.34
7109;BME280;29079;41.930;25.558;2023-03-25T08:10:26;99257.47;;;12.47;71.65
7109;BME280;29079;41.930;25.558;2023-03-25T08:13:00;99255.47;;;12.49;72.17
7109;BME280;29079;41.930;25.558;2023-03-25T08:15:33;99245.22;;;12.62;70.37
7109;BME280;29079;41.930;25.558;2023-03-25T08:18:07;99240.38;;;12.66;71.02
7109;BME280;29079;41.930;25.558;2023-03-25T08:20:41;99237.97;;;12.81;69.58
7109;BME280;29079;41.930;25.558;2023-03-25T08:23:14;99237.28;;;12.79;70.49
7109;BME280;29079;41.930;25.558;2023-03-25T08:25:50;99233.22;;;13.01;69.65
7109;BME280;29079;41.930;25.558;2023-03-25T08:28:24;99230.06;;;13.05;69.63
7109;BME280;29079;41.930;25.558;2023-03-25T08:30:58;99218.75;;;13.12;69.31
7109;BME280;29079;41.930;25.558;2023-03-25T08:33:33;99226.94;;;13.18;68.13
7109;BME280;29079;41.930;25.558;2023-03-25T08:36:11;99227.97;;;13.17;66.29
7109;BME280;29079;41.930;25.558;2023-03-25T08:38:50;99227.81;;;13.27;66.05
7109;BME280;29079;41.930;25.558;2023-03-25T08:41:23;99220.25;;;13.49;64.70
7109;BME280;29079;41.930;25.558;2023-03-25T08:43:56;99224.59;;;13.50;62.73
7109;BME280;29079;41.930;25.558;2023-03-25T08:46:30;99216.72;;;13.48;63.88
7109;BME280;29079;41.930;25.558;2023-03-25T08:49:03;99217.72;;;13.47;64.99
7109;BME280;29079;41.930;25.558;2023-03-25T08:51:38;99221.34;;;13.72;62.83
7109;BME280;29079;41.930;25.558;2023-03-25T08:54:11;99209.59;;;13.82;62.77
7109;BME280;29079;41.930;25.558;2023-03-25T08:56:46;99220.81;;;13.69;64.67
7109;BME280;29079;41.930;25.558;2023-03-25T08:59:19;99214.09;;;13.65;65.15
7109;BME280;29079;41.930;25.558;2023-03-25T09:01:53;99209.75;;;13.64;64.85
7109;BME280;29079;41.930;25.558;2023-03-25T09:04:28;99215.47;;;13.77;62.86
7109;BME280;29079;41.930;25.558;2023-03-25T09:07:03;99213.97;;;13.83;62.39
7109;BME280;29079;41.930;25.558;2023-03-25T09:09:42;99209.47;;;13.91;62.68
7109;BME280;29079;41.930;25.558;2023-03-25T09:12:21;99199.75;;;13.99;62.59
7109;BME280;29079;41.930;25.558;2023-03-25T09:14:54;99192.34;;;14.17;61.44
7109;BME280;29079;41.930;25.558;2023-03-25T09:17:27;99202.41;;;14.07;63.69
7109;BME280;29079;41.930;25.558;2023-03-25T09:20:01;99188.81;;;14.08;62.32
7109;BME280;29079;41.930;25.558;2023-03-25T09:22:35;99182.63;;;14.08;63.08
7109;BME280;29079;41.930;25.558;2023-03-25T09:25:08;99175.75;;;14.05;64.55
7109;BME280;29079;41.930;25.558;2023-03-25T09:27:42;99167.03;;;14.20;63.24
7109;BME280;29079;41.930;25.558;2023-03-25T09:30:14;99174.75;;;14.06;64.34
7109;BME280;29079;41.930;25.558;2023-03-25T09:32:47;99161.66;;;13.95;64.92
7109;BME280;29079;41.930;25.558;2023-03-25T09:35:20;99159.16;;;13.93;64.81
7109;BME280;29079;41.930;25.558;2023-03-25T09:37:55;99158.50;;;14.16;60.91
7109;BME280;29079;41.930;25.558;2023-03-25T09:40:29;99157.81;;;14.22;60.27
7109;BME280;29079;41.930;25.558;2023-03-25T09:43:04;99149.19;;;14.60;59.49
7109;BME280;29079;41.930;25.558;2023-03-25T09:45:40;99149.69;;;14.80;59.27
7109;BME280;29079;41.930;25.558;2023-03-25T09:48:19;99139.56;;;14.90;58.20
7109;BME280;29079;41.930;25.558;2023-03-25T09:50:55;99137.34;;;14.94;58.05
7109;BME280;29079;41.930;25.558;2023-03-25T09:53:33;99136.56;;;14.85;59.15
7109;BME280;29079;41.930;25.558;2023-03-25T09:56:10;99135.38;;;14.88;59.14
7109;BME280;29079;41.930;25.558;2023-03-25T09:58:46;99130.44;;;15.00;59.79
7109;BME280;29079;41.930;25.558;2023-03-25T10:01:25;99128.13;;;14.96;60.12
7109;BME280;29079;41.930;25.558;2023-03-25T10:04:02;99115.25;;;14.84;61.20
7109;BME280;29079;41.930;25.558;2023-03-25T10:06:41;99107.56;;;14.72;62.73
7109;BME280;29079;41.930;25.558;2023-03-25T10:09:23;99108.50;;;14.88;61.23
7109;BME280;29079;41.930;25.558;2023-03-25T10:12:02;99097.47;;;15.14;61.09
7109;BME280;29079;41.930;25.558;2023-03-25T10:14:39;99104.81;;;15.20;60.67
7109;BME280;29079;41.930;25.558;2023-03-25T10:17:19;99101.69;;;15.40;59.43
7109;BME280;29079;41.930;25.558;2023-03-25T10:19:57;99092.84;;;15.31;59.80
7109;BME280;29079;41.930;25.558;2023-03-25T10:22:36;99067.53;;;15.48;57.19
7109;BME280;29079;41.930;25.558;2023-03-25T10:25:14;99073.16;;;15.77;55.77
7109;BME280;29079;41.930;25.558;2023-03-25T10:27:49;99069.06;;;15.43;59.01
7109;BME280;29079;41.930;25.558;2023-03-25T10:30:23;99071.94;;;15.64;58.40
7109;BME280;29079;41.930;25.558;2023-03-25T10:32:58;99061.47;;;15.46;60.10
7109;BME280;29079;41.930;25.558;2023-03-25T10:35:34;99053.75;;;15.43;59.78
7109;BME280;29079;41.930;25.558;2023-03-25T10:38:11;99047.00;;;15.47;59.99
7109;BME280;29079;41.930;25.558;2023-03-25T10:40:47;99041.97;;;15.67;59.10
7109;BME280;29079;41.930;25.558;2023-03-25T10:43:23;99038.34;;;15.60;59.69
7109;BME280;29079;41.930;25.558;2023-03-25T10:45:58;99036.41;;;15.69;58.19
7109;BME280;29079;41.930;25.558;2023-03-25T10:48:33;99029.28;;;15.99;56.72
7109;BME280;29079;41.930;25.558;2023-03-25T10:51:08;99020.19;;;16.15;56.03
7109;BME280;29079;41.930;25.558;2023-03-25T10:53:41;99017.41;;;16.09;54.95
7109;BME280;29079;41.930;25.558;2023-03-25T10:56:19;99012.56;;;16.19;56.15
7109;BME280;29079;41.930;25.558;2023-03-25T10:58:54;98999.88;;;16.43;54.35
7109;BME280;29079;41.930;25.558;2023-03-25T11:01:31;99007.59;;;16.31;56.13
7109;BME280;29079;41.930;25.558;2023-03-25T11:04:08;99006.66;;;16.24;57.44
7109;BME280;29079;41.930;25.558;2023-03-25T11:06:42;99011.84;;;16.40;53.57
7109;BME280;29079;41.930;25.558;2023-03-25T11:09:21;98995.31;;;16.43;55.42
7109;BME280;29079;41.930;25.558;2023-03-25T11:12:00;99001.81;;;16.34;57.43
7109;BME280;29079;41.930;25.558;2023-03-25T11:14:35;98984.47;;;16.07;59.12
7109;BME280;29079;41.930;25.558;2023-03-25T11:17:10;98985.28;;;16.37;56.37
7109;BME280;29079;41.930;25.558;2023-03-25T11:19:49;98971.28;;;16.78;54.02
7109;BME280;29079;41.930;25.558;2023-03-25T11:22:25;98963.88;;;16.65;56.41
7109;BME280;29079;41.930;25.558;2023-03-25T11:25:00;98961.97;;;16.81;53.31
7109;BME280;29079;41.930;25.558;2023-03-25T11:27:40;98954.53;;;16.98;52.53
7109;BME280;29079;41.930;25.558;2023-03-25T11:30:17;98952.59;;;16.77;53.94
7109;BME280;29079;41.930;25.558;2023-03-25T11:32:57;98946.50;;;16.68;55.97
7109;BME280;29079;41.930;25.558;2023-03-25T11:35:32;98944.00;;;17.03;52.93
7109;BME280;29079;41.930;25.558;2023-03-25T11:38:12;98937.97;;;17.01;53.02
7109;BME280;29079;41.930;25.558;2023-03-25T11:40:48;98935.59;;;17.13;51.79
7109;BME280;29079;41.930;25.558;2023-03-25T11:43:23;98934.78;;;17.12;52.20
7109;BME280;29079;41.930;25.558;2023-03-25T11:45:58;98928.13;;;16.93;52.85
7109;BME280;29079;41.930;25.558;2023-03-25T11:48:40;98918.63;;;17.19;51.63
7109;BME280;29079;41.930;25.558;2023-03-25T11:51:14;98921.91;;;16.93;55.14
7109;BME280;29079;41.930;25.558;2023-03-25T11:53:48;98922.81;;;17.21;52.07
7109;BME280;29079;41.930;25.558;2023-03-25T11:56:23;98916.03;;;17.04;55.16
7109;BME280;29079;41.930;25.558;2023-03-25T11:59:00;98912.06;;;16.85;56.73
7109;BME280;29079;41.930;25.558;2023-03-25T12:01:36;98911.38;;;16.76;55.26
7109;BME280;29079;41.930;25.558;2023-03-25T12:04:11;98913.41;;;16.74;56.00
7109;BME280;29079;41.930;25.558;2023-03-25T12:06:52;98905.66;;;17.08;53.23
7109;BME280;29079;41.930;25.558;2023-03-25T12:09:29;98900.31;;;17.36;51.19
7109;BME280;29079;41.930;25.558;2023-03-25T12:12:11;98895.66;;;17.23;54.20
7109;BME280;29079;41.930;25.558;2023-03-25T12:14:52;98890.81;;;17.40;53.31
7109;BME280;29079;41.930;25.558;2023-03-25T12:17:30;98887.56;;;17.51;49.64
7109;BME280;29079;41.930;25.558;2023-03-25T12:20:09;98892.22;;;17.36;52.02
7109;BME280;29079;41.930;25.558;2023-03-25T12:22:49;98881.50;;;16.93;54.25
7109;BME280;29079;41.930;25.558;2023-03-25T12:25:35;98881.09;;;17.17;53.31
7109;BME280;29079;41.930;25.558;2023-03-25T12:31:05;98875.56;;;17.26;54.26
7109;BME280;29079;41.930;25.558;2023-03-25T12:33:47;98874.91;;;17.23;52.31
7109;BME280;29079;41.930;25.558;2023-03-25T12:36:27;98873.00;;;17.46;52.38
7109;BME280;29079;41.930;25.558;2023-03-25T12:39:09;98879.75;;;17.35;53.68
7109;BME280;29079;41.930;25.558;2023-03-25T12:41:48;98871.94;;;17.75;50.47
7109;BME280;29079;41.930;25.558;2023-03-25T12:44:32;98874.34;;;17.91;49.03
7109;BME280;29079;41.930;25.558;2023-03-25T12:47:12;98872.34;;;18.07;48.69
7109;BME280;29079;41.930;25.558;2023-03-25T12:49:50;98862.63;;;17.78;53.12
7109;BME280;29079;41.930;25.558;2023-03-25T12:52:28;98856.72;;;17.67;52.46
7109;BME280;29079;41.930;25.558;2023-03-25T12:55:11;98847.88;;;17.80;52.32
7109;BME280;29079;41.930;25.558;2023-03-25T12:57:53;98851.44;;;17.87;49.67
7109;BME280;29079;41.930;25.558;2023-03-25T13:00:31;98839.25;;;17.56;50.68
7109;BME280;29079;41.930;25.558;2023-03-25T13:03:26;98834.31;;;17.60;53.08
7109;BME280;29079;41.930;25.558;2023-03-25T13:06:06;98836.88;;;17.82;48.94
7109;BME280;29079;41.930;25.558;2023-03-25T13:08:45;98828.16;;;17.80;48.91
7109;BME280;29079;41.930;25.558;2023-03-25T13:11:20;98827.84;;;17.61;52.96
7109;BME280;29079;41.930;25.558;2023-03-25T13:13:57;98821.63;;;17.61;52.78
7109;BME280;29079;41.930;25.558;2023-03-25T13:16:33;98819.25;;;17.79;51.18
7109;BME280;29079;41.930;25.558;2023-03-25T13:19:10;98818.59;;;17.77;51.62
7109;BME280;29079;41.930;25.558;2023-03-25T13:21:46;98820.41;;;18.05;49.17
7109;BME280;29079;41.930;25.558;2023-03-25T13:24:25;98810.06;;;18.15;50.56
7109;BME280;29079;41.930;25.558;2023-03-25T13:27:00;98799.09;;;17.82;51.81
7109;BME280;29079;41.930;25.558;2023-03-25T13:29:35;98813.13;;;17.99;49.30
7109;BME280;29079;41.930;25.558;2023-03-25T13:32:12;98804.81;;;18.00;50.24
7109;BME280;29079;41.930;25.558;2023-03-25T13:34:51;98800.81;;;17.89;49.87
7109;BME280;29079;41.930;25.558;2023-03-25T13:37:25;98798.72;;;17.85;50.08
7109;BME280;29079;41.930;25.558;2023-03-25T13:40:12;98802.50;;;17.55;51.22
7109;BME280;29079;41.930;25.558;2023-03-25T13:42:51;98789.31;;;17.32;52.20
7109;BME280;29079;41.930;25.558;2023-03-25T13:45:26;98782.94;;;17.40;53.74
7109;BME280;29079;41.930;25.558;2023-03-25T13:48:03;98781.47;;;17.37;52.79
7109;BME280;29079;41.930;25.558;2023-03-25T13:50:41;98779.91;;;17.56;51.51
7109;BME280;29079;41.930;25.558;2023-03-25T13:53:15;98774.09;;;17.53;50.08
7109;BME280;29079;41.930;25.558;2023-03-25T13:55:54;98765.47;;;17.78;48.98
7109;BME280;29079;41.930;25.558;2023-03-25T13:58:40;98764.59;;;17.64;49.85